Time;durP1;ratioP1;P1;durP2;ratioP2;P2;SDS_P1;SDS_P2;PMS_P1;PMS_P2;Temp;Humidity;BMP_temperature;BMP_pressure;BME280_temperature;BME280_humidity;BME280_pressure;Samples;Min_cycle;Max_cycle;Signal;HPM_P1;HPM_P2
2022/09/13 00:00:58;;;;;;;7.78;6.93;;;17.70;99.90;;;;;;5045839;28;20049;-70
2022/09/13 00:03:25;;;;;;;11.45;7.35;;;17.70;99.90;;;;;;5061823;28;20109;-71
2022/09/13 00:05:51;;;;;;;9.80;6.32;;;17.70;99.90;;;;;;5067214;28;20068;-71
2022/09/13 00:08:18;;;;;;;7.00;6.07;;;17.70;99.90;;;;;;5049152;28;20094;-71
2022/09/13 00:10:44;;;;;;;9.68;6.43;;;17.70;99.90;;;;;;5066902;28;20493;-70
2022/09/13 00:13:12;;;;;;;9.13;6.20;;;17.60;99.90;;;;;;5052438;28;20052;-71
2022/09/13 00:15:49;;;;;;;8.77;6.63;;;17.70;99.90;;;;;;5033360;28;20271;-71
2022/09/13 00:18:16;;;;;;;11.38;7.13;;;17.70;99.90;;;;;;5066939;28;20505;-72
2022/09/13 00:20:42;;;;;;;9.38;7.22;;;17.70;99.90;;;;;;5065663;28;20487;-71
2022/09/13 00:23:09;;;;;;;11.63;7.50;;;17.70;99.90;;;;;;5049788;28;20075;-71
2022/09/13 00:25:35;;;;;;;11.13;8.02;;;17.70;99.90;;;;;;5065887;28;20044;-72
2022/09/13 00:28:01;;;;;;;9.52;7.75;;;17.70;99.90;;;;;;5066284;28;20040;-71
2022/09/13 00:30:27;;;;;;;11.57;8.05;;;17.70;99.90;;;;;;5066385;28;20420;-70
2022/09/13 00:32:54;;;;;;;10.88;8.13;;;17.70;99.90;;;;;;5060825;28;20047;-71
2022/09/13 00:35:19;;;;;;;14.32;7.93;;;17.70;99.90;;;;;;5058997;28;20120;-70
2022/09/13 00:37:45;;;;;;;8.77;7.60;;;17.70;99.90;;;;;;5066217;28;20123;-70
2022/09/13 00:40:11;;;;;;;10.85;7.78;;;17.70;99.90;;;;;;5064541;28;20060;-71
2022/09/13 00:42:37;;;;;;;9.75;7.35;;;17.70;99.90;;;;;;5064852;28;20470;-71
2022/09/13 00:45:16;;;;;;;10.80;8.00;;;17.60;99.90;;;;;;5065732;28;20045;-71
2022/09/13 00:47:52;;;;;;;11.20;8.27;;;17.60;99.90;;;;;;5064774;28;20047;-71
2022/09/13 00:50:21;;;;;;;14.73;8.27;;;17.60;99.90;;;;;;5064983;28;20330;-71
2022/09/13 00:53:01;;;;;;;9.82;7.72;;;17.60;99.90;;;;;;5065071;28;20032;-70
2022/09/13 00:55:31;;;;;;;;;;;17.60;99.90;;;;;;5065429;28;20036;-71
2022/09/13 00:58:04;;;;;;;11.32;6.50;;;17.60;99.90;;;;;;5062493;28;19924;-71
2022/09/13 01:00:29;;;;;;;10.40;6.95;;;17.60;99.90;;;;;;5061671;28;20502;-70
2022/09/13 01:02:59;;;;;;;10.90;7.80;;;17.60;99.90;;;;;;5058514;28;20052;-70
2022/09/13 01:05:31;;;;;;;12.95;8.52;;;17.60;99.90;;;;;;5046681;28;20127;-70
2022/09/13 01:07:58;;;;;;;10.60;7.75;;;17.60;99.90;;;;;;5064998;28;20053;-71
2022/09/13 01:10:25;;;;;;;11.02;8.43;;;17.50;99.90;;;;;;5048763;28;20052;-71
2022/09/13 01:13:11;;;;;;;14.07;8.93;;;17.50;99.90;;;;;;5064854;28;20083;-71
2022/09/13 01:15:38;;;;;;;11.90;8.32;;;17.50;99.90;;;;;;5065471;28;20075;-71
2022/09/13 01:18:04;;;;;;;12.18;9.52;;;17.50;99.90;;;;;;5048768;28;20044;-72
2022/09/13 01:20:45;;;;;;;14.30;9.45;;;17.50;99.90;;;;;;5047930;28;20127;-72
2022/09/13 01:23:29;;;;;;;15.73;9.38;;;17.50;99.90;;;;;;5035619;28;20102;-72
2022/09/13 01:26:21;;;;;;;16.13;9.75;;;17.50;99.90;;;;;;5064411;28;20044;-72
2022/09/13 01:28:59;;;;;;;17.15;10.63;;;17.50;99.90;;;;;;5048759;28;20464;-72
2022/09/13 01:31:32;;;;;;;21.48;11.82;;;17.50;99.90;;;;;;5064036;28;20070;-73
2022/09/13 01:34:13;;;;;;;17.92;12.20;;;17.50;99.90;;;;;;5059684;28;20044;-72
2022/09/13 01:37:23;;;;;;;16.88;12.90;;;17.40;99.90;;;;;;5048923;28;20033;-73
2022/09/13 01:40:03;;;;;;;18.30;13.30;;;17.40;99.90;;;;;;5029625;28;20546;-72
2022/09/13 01:42:38;;;;;;;20.33;13.10;;;17.40;99.90;;;;;;5064094;28;20066;-72
2022/09/13 01:45:10;;;;;;;23.52;14.55;;;17.40;99.90;;;;;;5051202;28;20056;-72
2022/09/13 01:47:57;;;;;;;22.52;14.68;;;17.40;99.90;;;;;;5064170;28;20048;-72
2022/09/13 01:50:47;;;;;;;18.30;13.20;;;17.40;99.90;;;;;;5047921;28;20036;-73
2022/09/13 01:53:22;;;;;;;22.88;13.88;;;17.50;99.90;;;;;;5054212;28;20037;-72
2022/09/13 01:56:03;;;;;;;18.50;12.48;;;17.40;99.90;;;;;;5063947;28;20037;-73
2022/09/13 01:58:52;;;;;;;19.92;12.55;;;17.40;99.90;;;;;;5064411;28;20530;-73
2022/09/13 02:01:24;;;;;;;19.63;12.68;;;17.40;99.90;;;;;;5060322;28;20129;-74
2022/09/13 02:03:57;;;;;;;17.90;11.82;;;17.40;99.90;;;;;;5053658;28;20049;-73
2022/09/13 02:06:34;;;;;;;18.27;12.38;;;17.40;99.90;;;;;;5048051;28;20094;-74
2022/09/13 02:09:07;;;;;;;16.98;11.50;;;17.40;99.90;;;;;;5046974;28;20650;-74
2022/09/13 02:11:35;;;;;;;13.60;9.23;;;17.30;99.90;;;;;;5064883;28;20083;-74
2022/09/13 02:14:07;;;;;;;19.10;11.05;;;17.30;99.90;;;;;;5063084;28;20540;-73
2022/09/13 02:16:44;;;;;;;11.23;8.65;;;17.30;99.90;;;;;;5064018;28;20059;-74
2022/09/13 02:19:21;;;;;;;8.35;7.05;;;17.30;99.90;;;;;;5064820;28;20490;-73
2022/09/13 02:21:53;;;;;;;11.02;5.95;;;17.30;99.90;;;;;;5063840;28;20137;-72
2022/09/13 02:24:26;;;;;;;10.30;6.30;;;17.30;99.90;;;;;;5063720;28;20045;-75
2022/09/13 02:26:55;;;;;;;7.85;6.65;;;17.30;99.90;;;;;;5064235;28;20467;-73
2022/09/13 02:29:23;;;;;;;8.95;6.25;;;17.30;99.90;;;;;;5064254;28;20052;-73
2022/09/13 02:32:05;;;;;;;9.07;6.55;;;17.30;99.90;;;;;;5031407;28;20041;-73
2022/09/13 02:34:40;;;;;;;11.45;5.75;;;17.30;99.90;;;;;;5045747;28;20041;-73
2022/09/13 02:37:08;;;;;;;11.43;6.35;;;17.30;99.90;;;;;;5048385;28;20067;-73
2022/09/13 02:39:39;;;;;;;11.13;6.90;;;17.40;99.90;;;;;;5063259;28;20033;-73
2022/09/13 02:42:16;;;;;;;9.25;7.03;;;17.40;99.90;;;;;;5047740;28;20131;-74
2022/09/13 02:44:51;;;;;;;10.23;7.20;;;17.40;99.90;;;;;;5063737;28;20044;-73
2022/09/13 02:47:53;;;;;;;12.13;6.95;;;17.50;99.90;;;;;;5063398;28;20056;-73
2022/09/13 02:50:32;;;;;;;9.43;7.82;;;17.50;99.90;;;;;;5063686;28;20050;-73
2022/09/13 02:53:22;;;;;;;11.82;6.65;;;17.50;99.90;;;;;;5064143;28;20413;-72
2022/09/13 02:55:47;;;;;;;9.20;7.07;;;17.50;99.90;;;;;;5063241;28;20063;-73
2022/09/13 02:58:21;;;;;;;9.93;7.00;;;17.50;99.90;;;;;;5064426;28;20040;-73
2022/09/13 03:00:47;;;;;;;13.90;8.80;;;17.50;99.90;;;;;;5046407;28;20463;-73
2022/09/13 03:03:15;;;;;;;11.93;8.25;;;17.50;99.90;;;;;;5042188;28;20048;-73
2022/09/13 03:05:42;;;;;;;14.70;8.60;;;17.50;99.90;;;;;;5046917;28;20097;-72
2022/09/13 03:08:11;;;;;;;16.27;10.98;;;17.50;99.90;;;;;;5063823;28;20045;-72
2022/09/13 03:11:02;;;;;;;20.55;11.23;;;17.50;99.90;;;;;;5063362;28;20044;-72
2022/09/13 03:13:36;;;;;;;21.50;10.75;;;17.50;99.90;;;;;;5063075;28;20056;-71
2022/09/13 03:16:05;;;;;;;11.23;6.97;;;17.50;99.90;;;;;;5063929;28;20047;-72
2022/09/13 03:19:01;;;;;;;13.20;6.43;;;17.40;99.90;;;;;;5063493;28;20059;-72
2022/09/13 03:21:46;;;;;;;8.23;6.32;;;17.30;99.90;;;;;;5063392;28;20358;-72
2022/09/13 03:24:51;;;;;;;10.57;7.10;;;17.40;99.90;;;;;;5047953;28;20040;-73
2022/09/13 03:27:40;;;;;;;8.35;5.20;;;17.30;99.90;;;;;;5064346;28;20109;-72
2022/09/13 03:30:10;;;;;;;7.43;2.97;;;17.30;99.90;;;;;;5067128;28;20056;-73
2022/09/13 03:32:51;;;;;;;10.25;2.92;;;17.20;99.90;;;;;;5039499;28;20068;-73
2022/09/13 03:35:52;;;;;;;4.30;2.78;;;17.20;99.90;;;;;;5055068;28;20056;-73
2022/09/13 03:38:26;;;;;;;5.97;4.00;;;17.10;99.90;;;;;;5067186;28;20383;-72
2022/09/13 03:40:56;;;;;;;6.47;2.03;;;17.10;99.90;;;;;;5049918;28;20043;-73
2022/09/13 03:43:40;;;;;;;4.28;1.60;;;17.10;99.90;;;;;;5066782;28;20457;-73
2022/09/13 03:46:35;;;;;;;4.38;1.73;;;17.10;99.90;;;;;;5067736;28;20048;-72
2022/09/13 03:49:08;;;;;;;5.13;1.80;;;17.10;99.90;;;;;;5066718;28;20143;-73
2022/09/13 03:51:35;;;;;;;3.15;1.23;;;17.10;99.90;;;;;;5059597;28;20045;-73
2022/09/13 03:54:04;;;;;;;2.65;1.20;;;17.10;99.90;;;;;;5067503;28;20413;-73
2022/09/13 03:56:30;;;;;;;3.70;1.67;;;17.10;99.90;;;;;;5066113;28;20102;-72
2022/09/13 03:58:57;;;;;;;5.35;2.10;;;17.10;99.90;;;;;;5067650;28;20114;-72
2022/09/13 04:01:24;;;;;;;2.35;1.90;;;17.10;99.90;;;;;;5044571;28;20582;-72
2022/09/13 04:03:50;;;;;;;2.45;1.85;;;17.20;99.90;;;;;;5067455;28;20131;-72
2022/09/13 04:06:16;;;;;;;2.80;1.80;;;17.10;99.90;;;;;;5049822;28;20057;-72
2022/09/13 04:08:42;;;;;;;6.63;2.13;;;17.20;99.90;;;;;;5035881;28;20437;-72
2022/09/13 04:11:08;;;;;;;6.35;2.15;;;17.20;99.90;;;;;;5066368;28;20123;-73
2022/09/13 04:13:35;;;;;;;3.33;2.10;;;17.20;99.90;;;;;;5066017;28;20457;-72
2022/09/13 04:16:02;;;;;;;5.43;2.40;;;17.20;99.90;;;;;;5066868;28;20052;-72
2022/09/13 04:18:29;;;;;;;4.35;2.25;;;17.20;99.90;;;;;;5049013;28;20067;-72
2022/09/13 04:20:56;;;;;;;4.03;2.10;;;17.20;99.90;;;;;;5060269;28;20540;-72
2022/09/13 04:23:23;;;;;;;6.53;2.08;;;17.20;99.90;;;;;;5028969;28;20533;-72
2022/09/13 04:25:50;;;;;;;6.30;1.55;;;17.20;99.90;;;;;;5044081;28;20052;-73
2022/09/13 04:28:17;;;;;;;4.15;1.48;;;17.20;99.90;;;;;;5066151;28;20630;-72
2022/09/13 04:30:44;;;;;;;3.78;1.55;;;17.20;99.90;;;;;;5047862;28;20037;-73
2022/09/13 04:33:10;;;;;;;2.75;2.10;;;17.20;99.90;;;;;;5066466;28;20076;-73
2022/09/13 04:35:37;;;;;;;3.58;2.10;;;17.20;99.90;;;;;;5048511;28;20079;-72
2022/09/13 04:38:04;;;;;;;4.22;2.10;;;17.20;99.90;;;;;;5066058;28;20039;-72
2022/09/13 04:40:30;;;;;;;3.20;2.08;;;17.20;99.90;;;;;;5064661;28;20502;-72
2022/09/13 04:42:55;;;;;;;4.03;2.30;;;17.20;99.90;;;;;;5048833;28;20226;-72
2022/09/13 04:45:22;;;;;;;7.63;2.50;;;17.20;99.90;;;;;;5065717;28;20048;-72
2022/09/13 04:47:52;;;;;;;5.22;1.92;;;17.30;99.90;;;;;;5048794;28;20044;-72
2022/09/13 04:50:22;;;;;;;2.92;1.83;;;17.20;99.90;;;;;;5066075;28;20398;-72
2022/09/13 04:52:48;;;;;;;2.97;2.10;;;17.20;99.90;;;;;;5064727;28;20045;-72
2022/09/13 04:55:14;;;;;;;3.17;1.90;;;17.30;99.90;;;;;;5049405;28;20111;-72
2022/09/13 04:57:40;;;;;;;6.68;2.92;;;17.20;99.90;;;;;;5064587;28;20132;-72
2022/09/13 05:00:09;;;;;;;8.52;2.22;;;17.20;99.90;;;;;;5065372;28;20044;-72
2022/09/13 05:02:35;;;;;;;4.13;1.88;;;17.30;99.90;;;;;;5075923;28;20079;-72
2022/09/13 05:05:01;;;;;;;6.57;2.00;;;17.20;99.90;;;;;;5064286;28;20487;-72
2022/09/13 05:07:26;;;;;;;6.53;1.80;;;17.20;99.90;;;;;;5048235;28;20052;-72
2022/09/13 05:09:52;;;;;;;5.85;2.08;;;17.20;99.90;;;;;;5064706;28;20463;-72
2022/09/13 05:12:18;;;;;;;5.55;1.95;;;17.20;99.90;;;;;;5047171;28;20114;-72
2022/09/13 05:14:43;;;;;;;5.93;2.03;;;17.20;99.90;;;;;;5064171;28;20044;-72
2022/09/13 05:17:09;;;;;;;5.38;1.67;;;17.20;99.90;;;;;;5065588;28;20070;-72
2022/09/13 05:19:35;;;;;;;5.05;1.45;;;17.20;99.90;;;;;;5063950;28;20029;-71
2022/09/13 05:22:02;;;;;;;7.55;1.40;;;17.20;99.90;;;;;;5048941;28;20057;-72
2022/09/13 05:24:27;;;;;;;6.05;1.80;;;17.20;99.90;;;;;;5047539;28;20079;-71
2022/09/13 05:26:53;;;;;;;4.43;1.95;;;17.20;99.90;;;;;;5065154;28;20127;-72
2022/09/13 05:29:19;;;;;;;6.13;2.20;;;17.20;99.90;;;;;;5065292;28;20465;-72
2022/09/13 05:31:45;;;;;;;7.22;2.80;;;17.10;99.90;;;;;;5031060;28;20036;-72
2022/09/13 05:34:13;;;;;;;4.15;1.40;;;17.20;99.90;;;;;;5054936;28;20044;-71
2022/09/13 05:36:39;;;;;;;5.80;2.20;;;17.10;99.90;;;;;;5062914;28;20044;-71
2022/09/13 05:39:06;;;;;;;7.68;2.53;;;17.10;99.90;;;;;;5065725;28;20071;-71
2022/09/13 05:41:32;;;;;;;7.75;2.95;;;17.10;99.90;;;;;;5063829;28;20045;-71
2022/09/13 05:43:59;;;;;;;14.07;2.92;;;17.10;99.90;;;;;;5063413;28;20494;-72
2022/09/13 05:46:25;;;;;;;8.60;1.92;;;17.00;99.90;;;;;;5063378;28;20052;-71
2022/09/13 05:48:50;;;;;;;9.13;1.52;;;17.00;99.90;;;;;;5066608;28;20511;-72
2022/09/13 05:51:22;;;;;;;12.43;1.73;;;16.90;99.90;;;;;;5065248;28;20075;-73
2022/09/13 05:53:50;;;;;;;6.10;1.50;;;16.90;99.90;;;;;;5063210;28;20041;-72
2022/09/13 05:56:24;;;;;;;9.57;1.65;;;16.80;99.90;;;;;;5062837;28;20552;-71
2022/09/13 05:58:51;;;;;;;7.03;1.55;;;16.80;99.90;;;;;;5063968;28;20457;-72
2022/09/13 06:01:19;;;;;;;8.02;1.15;;;16.80;99.90;;;;;;5044861;28;20103;-71
2022/09/13 06:03:49;;;;;;;12.60;1.65;;;16.70;99.90;;;;;;5062267;28;20036;-73
2022/09/13 06:06:16;;;;;;;12.95;1.88;;;16.70;99.90;;;;;;5062533;28;20032;-72
2022/09/13 06:08:43;;;;;;;10.25;1.48;;;16.70;99.90;;;;;;5060230;28;20432;-72
2022/09/13 06:11:11;;;;;;;8.13;1.35;;;16.70;99.90;;;;;;5063660;28;20052;-72
2022/09/13 06:13:38;;;;;;;11.82;1.88;;;16.70;99.90;;;;;;5080342;28;20040;-73
2022/09/13 06:16:06;;;;;;;11.05;1.50;;;16.80;99.90;;;;;;5063233;28;20044;-72
2022/09/13 06:18:34;;;;;;;12.45;1.90;;;16.80;99.90;;;;;;5063648;28;20044;-72
2022/09/13 06:21:03;;;;;;;6.97;1.42;;;16.80;99.90;;;;;;5063108;28;20056;-72
2022/09/13 06:23:30;;;;;;;6.63;1.88;;;16.80;99.90;;;;;;5058836;28;20452;-73
2022/09/13 06:26:13;;;;;;;11.45;2.30;;;16.90;99.90;;;;;;5063865;28;20256;-71
2022/09/13 06:28:40;;;;;;;21.30;3.58;;;16.90;99.90;;;;;;5063865;28;20399;-73
2022/09/13 06:31:11;;;;;;;16.35;3.42;;;16.90;99.90;;;;;;5046281;28;20041;-72
2022/09/13 06:33:42;;;;;;;16.42;3.50;;;16.90;99.90;;;;;;5064435;28;20448;-72
2022/09/13 06:36:11;;;;;;;15.93;3.40;;;17.00;99.90;;;;;;5062223;28;20052;-72
2022/09/13 06:38:40;;;;;;;14.18;2.55;;;17.00;99.90;;;;;;5063057;28;20073;-72
2022/09/13 06:41:09;;;;;;;10.02;2.33;;;17.10;99.90;;;;;;5059029;28;20047;-71
2022/09/13 06:43:36;;;;;;;11.93;2.53;;;17.10;99.90;;;;;;5063369;28;20120;-72
2022/09/13 06:46:08;;;;;;;12.45;1.60;;;17.10;99.90;;;;;;5031208;28;20075;-72
2022/09/13 06:48:37;;;;;;;11.10;1.65;;;17.20;99.90;;;;;;5063207;28;20040;-72
2022/09/13 06:51:07;;;;;;;6.20;1.45;;;17.20;99.90;;;;;;5044910;28;20396;-72
2022/09/13 06:53:35;;;;;;;10.57;2.30;;;17.20;99.90;;;;;;5063575;28;20122;-71
2022/09/13 06:56:13;;;;;;;10.25;1.85;;;17.30;99.90;;;;;;5062511;28;20051;-71
2022/09/13 06:58:41;;;;;;;8.82;2.08;;;17.50;99.90;;;;;;5044988;28;20411;-71
2022/09/13 07:01:11;;;;;;;9.40;2.30;;;17.60;99.90;;;;;;5062736;28;20045;-71
2022/09/13 07:03:39;;;;;;;10.45;2.00;;;17.60;99.90;;;;;;5058754;28;20131;-70
2022/09/13 07:06:10;;;;;;;8.25;2.10;;;17.70;99.90;;;;;;5067219;28;20056;-70
2022/09/13 07:08:37;;;;;;;6.82;1.30;;;18.00;99.90;;;;;;5063346;28;20484;-71
2022/09/13 07:11:03;;;;;;;5.88;1.10;;;18.20;99.90;;;;;;5062002;28;20398;-71
2022/09/13 07:13:29;;;;;;;8.73;2.10;;;18.30;99.90;;;;;;5067665;28;20052;-70
2022/09/13 07:15:55;;;;;;;7.45;1.27;;;18.40;99.90;;;;;;5049081;28;20048;-70
2022/09/13 07:18:21;;;;;;;7.65;1.30;;;18.60;99.90;;;;;;5063513;28;20487;-70
2022/09/13 07:20:46;;;;;;;11.80;1.92;;;18.70;99.90;;;;;;5041483;28;20091;-71
2022/09/13 07:23:12;;;;;;;6.00;1.20;;;18.80;99.90;;;;;;5040394;28;20230;-69
2022/09/13 07:25:38;;;;;;;6.63;1.27;;;18.60;99.90;;;;;;5067121;28;20425;-69
2022/09/13 07:28:04;;;;;;;7.82;1.38;;;18.60;99.90;;;;;;5050403;28;20135;-70
2022/09/13 07:30:29;;;;;;;4.93;1.60;;;18.60;99.90;;;;;;5066872;28;20049;-69
2022/09/13 07:32:55;;;;;;;4.00;1.40;;;18.40;99.90;;;;;;5049658;28;20047;-69
2022/09/13 07:35:21;;;;;;;8.68;1.73;;;18.40;99.90;;;;;;5060997;28;20552;-70
2022/09/13 07:37:47;;;;;;;6.63;1.45;;;18.50;99.90;;;;;;5065419;28;20048;-69
2022/09/13 07:40:12;;;;;;;10.30;1.65;;;18.70;99.90;;;;;;5050015;28;20088;-70
2022/09/13 07:42:38;;;;;;;6.63;1.52;;;18.80;99.90;;;;;;5064773;28;20105;-69
2022/09/13 07:45:04;;;;;;;8.20;2.15;;;18.80;99.90;;;;;;5046126;28;20398;-69
2022/09/13 07:47:32;;;;;;;8.30;2.17;;;18.80;99.90;;;;;;5067390;28;20046;-69
2022/09/13 07:49:58;;;;;;;7.45;2.45;;;18.90;99.90;;;;;;5065512;28;20040;-69
2022/09/13 07:52:23;;;;;;;11.35;1.63;;;18.90;99.90;;;;;;5050786;28;20113;-69
2022/09/13 07:54:49;;;;;;;9.20;1.83;;;18.90;99.90;;;;;;5042250;28;20076;-69
2022/09/13 07:57:15;;;;;;;8.23;1.20;;;18.90;99.90;;;;;;5067184;28;20052;-69
2022/09/13 07:59:40;;;;;;;11.70;1.52;;;18.90;99.90;;;;;;5064241;28;20052;-69
2022/09/13 08:02:08;;;;;;;6.07;1.40;;;18.70;99.90;;;;;;5064897;28;20036;-69
2022/09/13 08:04:34;;;;;;;5.25;0.95;;;18.50;99.90;;;;;;5059094;28;20044;-69
2022/09/13 08:07:00;;;;;;;11.02;1.20;;;18.40;99.90;;;;;;5061141;28;20149;-69
2022/09/13 08:09:26;;;;;;;10.23;1.50;;;18.50;99.90;;;;;;5063638;28;20574;-69
2022/09/13 08:11:52;;;;;;;7.80;1.38;;;18.70;99.90;;;;;;5055773;28;20401;-69
2022/09/13 08:14:21;;;;;;;8.93;1.48;;;18.80;99.90;;;;;;5064572;28;20044;-69
2022/09/13 08:16:47;;;;;;;7.75;1.63;;;18.70;99.90;;;;;;5055711;28;20080;-69
2022/09/13 08:19:15;;;;;;;8.38;1.35;;;18.70;99.90;;;;;;5043904;28;20084;-68
2022/09/13 08:21:42;;;;;;;8.05;1.52;;;18.60;99.90;;;;;;5059177;28;20076;-68
2022/09/13 08:24:16;;;;;;;7.28;1.35;;;18.40;99.90;;;;;;5063485;28;20135;-68
2022/09/13 08:26:42;;;;;;;7.97;1.27;;;18.50;99.90;;;;;;5056307;28;20052;-69
2022/09/13 08:29:10;;;;;;;5.72;1.30;;;18.70;99.90;;;;;;5048940;28;20542;-67
2022/09/13 08:31:36;;;;;;;10.43;1.58;;;18.80;97.70;;;;;;5046223;28;20429;-68
2022/09/13 08:34:02;;;;;;;6.95;1.10;;;18.90;97.00;;;;;;5057516;28;20463;-68
2022/09/13 08:36:29;;;;;;;3.17;1.10;;;19.00;92.80;;;;;;5048980;28;20123;-68
2022/09/13 08:38:57;;;;;;;7.57;1.60;;;19.10;98.80;;;;;;5044591;28;20074;-68
2022/09/13 08:41:44;;;;;;;9.23;1.05;;;19.00;93.40;;;;;;5061937;28;20048;-68
2022/09/13 08:44:22;;;;;;;7.55;1.60;;;18.80;93.60;;;;;;5067456;28;20040;-68
2022/09/13 08:46:50;;;;;;;5.10;1.23;;;18.90;98.50;;;;;;5064385;28;20040;-68
2022/09/13 08:49:21;;;;;;;3.97;1.05;;;19.10;95.80;;;;;;5066511;28;20159;-68
2022/09/13 08:51:51;;;;;;;9.43;1.60;;;19.20;91.60;;;;;;5061402;28;20562;-68
2022/09/13 08:54:19;;;;;;;4.82;1.48;;;19.20;89.80;;;;;;5062623;28;20056;-68
2022/09/13 08:57:12;;;;;;;7.55;1.20;;;19.20;94.40;;;;;;5061937;28;20063;-68
2022/09/13 09:00:01;;;;;;;9.13;1.48;;;19.30;80.40;;;;;;5074750;28;20041;-67
2022/09/13 09:02:53;;;;;;;8.65;1.35;;;19.20;84.70;;;;;;5063751;28;20086;-68
2022/09/13 09:05:23;;;;;;;8.55;1.90;;;19.20;85.90;;;;;;5060632;28;20514;-68
2022/09/13 09:07:56;;;;;;;9.02;1.25;;;19.20;83.90;;;;;;5059575;28;20053;-68
2022/09/13 09:10:31;;;;;;;7.45;1.92;;;19.00;88.70;;;;;;5063569;28;20040;-68
2022/09/13 09:13:14;;;;;;;5.68;1.40;;;18.90;90.00;;;;;;5059953;28;20057;-68
2022/09/13 09:15:50;;;;;;;8.20;1.15;;;19.10;96.10;;;;;;5062223;28;20115;-68
2022/09/13 09:18:34;;;;;;;4.60;1.30;;;19.20;82.40;;;;;;5061586;28;20517;-68
2022/09/13 09:21:00;;;;;;;8.90;1.38;;;19.20;91.50;;;;;;5057745;28;20072;-67
2022/09/13 09:23:40;;;;;;;9.50;1.23;;;19.40;89.80;;;;;;5053991;28;20063;-68
2022/09/13 09:26:14;;;;;;;5.45;1.17;;;19.40;82.10;;;;;;5059898;28;20055;-67
2022/09/13 09:28:46;;;;;;;6.05;1.10;;;19.40;87.70;;;;;;5078315;28;20490;-68
2022/09/13 09:31:18;;;;;;;6.38;1.27;;;19.40;71.40;;;;;;5061074;28;20506;-67
2022/09/13 09:34:06;;;;;;;5.05;1.42;;;19.30;75.50;;;;;;5061191;28;20036;-67
2022/09/13 09:36:43;;;;;;;10.32;1.42;;;19.20;75.30;;;;;;5064078;28;20119;-67
2022/09/13 09:39:12;;;;;;;6.07;1.38;;;19.10;80.60;;;;;;5056946;28;20052;-68
2022/09/13 09:41:38;;;;;;;10.85;1.50;;;19.10;75.90;;;;;;5058608;28;20471;-67
2022/09/13 09:44:26;;;;;;;9.75;1.85;;;19.20;79.80;;;;;;5058210;28;20399;-67
2022/09/13 09:47:14;;;;;;;8.75;1.70;;;19.40;82.50;;;;;;5061927;28;20048;-67
2022/09/13 09:50:08;;;;;;;6.32;1.20;;;19.30;64.50;;;;;;5061427;28;20048;-66
2022/09/13 09:52:38;;;;;;;11.57;1.45;;;19.10;66.10;;;;;;5063040;28;20161;-67
2022/09/13 09:55:52;;;;;;;6.22;1.50;;;19.00;72.00;;;;;;5062921;28;20074;-66
2022/09/13 09:58:35;;;;;;;9.68;1.83;;;19.00;71.40;;;;;;5062012;28;20131;-67
2022/09/13 10:01:00;;;;;;;6.20;1.27;;;19.10;71.90;;;;;;5051852;28;20475;-66
2022/09/13 10:03:32;;;;;;;6.78;1.10;;;19.20;73.30;;;;;;5056936;28;20090;-66
2022/09/13 10:06:10;;;;;;;11.35;1.55;;;19.20;76.30;;;;;;5063440;28;20573;-66
2022/09/13 10:08:47;;;;;;;10.57;1.90;;;19.60;79.30;;;;;;5060804;28;20052;-66
2022/09/13 10:11:14;;;;;;;7.32;1.45;;;19.90;86.80;;;;;;5035393;28;20082;-67
2022/09/13 10:14:00;;;;;;;12.05;1.58;;;20.10;70.30;;;;;;5046755;28;20048;-67
2022/09/13 10:16:28;;;;;;;11.68;1.48;;;20.10;72.60;;;;;;5055209;28;20040;-66
2022/09/13 10:19:24;;;;;;;6.68;1.15;;;20.20;75.20;;;;;;5043869;28;20131;-66
2022/09/13 10:22:01;;;;;;;14.02;2.00;;;20.20;76.00;;;;;;5077461;28;20523;-67
2022/09/13 10:24:29;;;;;;;7.50;2.58;;;20.00;74.30;;;;;;5060649;28;20051;-66
2022/09/13 10:26:56;;;;;;;9.85;1.67;;;19.70;70.40;;;;;;5059214;28;20083;-65
2022/09/13 10:29:24;;;;;;;9.95;1.48;;;19.60;85.50;;;;;;5062109;28;20480;-66
2022/09/13 10:31:52;;;;;;;5.57;1.60;;;19.60;77.60;;;;;;5044630;28;20094;-66
2022/09/13 10:34:34;;;;;;;5.75;1.25;;;19.80;81.70;;;;;;5062219;28;20070;-66
2022/09/13 10:37:02;;;;;;;7.22;1.40;;;19.90;72.00;;;;;;5078881;28;20388;-66
2022/09/13 10:39:31;;;;;;;5.65;1.30;;;20.10;83.30;;;;;;5061403;28;20510;-66
2022/09/13 10:42:02;;;;;;;7.32;1.00;;;20.40;80.80;;;;;;5067904;28;20095;-66
2022/09/13 10:44:42;;;;;;;5.53;1.58;;;20.50;67.50;;;;;;5064722;28;20060;-66
2022/09/13 10:47:22;;;;;;;9.45;1.60;;;20.50;59.20;;;;;;5083010;28;20044;-66
2022/09/13 10:49:54;;;;;;;11.50;1.48;;;20.50;70.90;;;;;;5068263;28;20048;-66
2022/09/13 10:52:32;;;;;;;5.78;0.90;;;20.40;54.80;;;;;;5064970;28;20045;-65
2022/09/13 10:55:25;;;;;;;6.70;0.90;;;20.30;66.60;;;;;;5065491;28;20051;-66
2022/09/13 10:58:12;;;;;;;6.30;1.15;;;20.20;61.60;;;;;;5067066;28;20286;-66
2022/09/13 11:01:19;;;;;;;5.60;1.40;;;20.20;53.00;;;;;;5060895;28;20102;-66
2022/09/13 11:04:37;;;;;;;4.72;1.55;;;20.10;47.70;;;;;;5053742;28;20053;-66
2022/09/13 11:07:14;;;;;;;5.47;1.17;;;19.90;53.70;;;;;;5065825;28;20044;-66
2022/09/13 11:10:10;;;;;;;5.25;1.13;;;19.70;60.40;;;;;;5065166;28;20128;-66
2022/09/13 11:12:49;;;;;;;6.05;0.88;;;19.90;52.60;;;;;;5064684;28;20119;-66
2022/09/13 11:15:30;;;;;;;4.80;1.10;;;20.30;63.70;;;;;;5049375;28;20080;-66
2022/09/13 11:17:59;;;;;;;5.82;0.95;;;20.30;63.90;;;;;;5073100;28;20063;-66
2022/09/13 11:20:31;;;;;;;8.70;1.85;;;20.10;65.50;;;;;;5065484;28;20067;-66
2022/09/13 11:23:11;;;;;;;7.32;1.40;;;20.00;69.80;;;;;;5055233;28;20355;-66
2022/09/13 11:25:58;;;;;;;6.55;1.20;;;19.90;71.40;;;;;;5059682;28;20518;-66
2022/09/13 11:28:38;;;;;;;9.65;1.25;;;19.80;67.10;;;;;;5064197;28;20052;-66
2022/09/13 11:31:13;;;;;;;6.47;1.70;;;19.60;55.70;;;;;;5065534;28;20032;-66
2022/09/13 11:33:56;;;;;;;9.90;1.80;;;19.40;60.90;;;;;;5064065;28;20479;-66
2022/09/13 11:36:27;;;;;;;10.05;1.48;;;19.40;74.50;;;;;;5043980;28;20335;-66
2022/09/13 11:39:12;;;;;;;7.10;1.30;;;19.40;71.10;;;;;;5049520;28;20071;-66
2022/09/13 11:41:59;;;;;;;5.80;1.35;;;19.30;63.40;;;;;;5057739;28;20040;-65
2022/09/13 11:44:35;;;;;;;8.45;1.80;;;19.20;66.30;;;;;;5066271;28;20048;-66
2022/09/13 11:47:13;;;;;;;4.30;1.25;;;19.50;59.30;;;;;;5056139;28;20045;-66
2022/09/13 11:50:16;;;;;;;8.75;1.90;;;19.80;65.10;;;;;;5065144;28;20041;-66
2022/09/13 11:52:48;;;;;;;8.00;1.83;;;20.20;50.60;;;;;;5062715;28;20097;-66
2022/09/13 11:55:33;;;;;;;12.65;1.98;;;20.60;63.00;;;;;;5082512;28;20097;-66
2022/09/13 11:58:09;;;;;;;9.82;1.58;;;20.40;58.70;;;;;;5058329;28;20055;-66
2022/09/13 12:01:00;;;;;;;11.23;2.28;;;20.10;65.10;;;;;;5053828;28;20437;-66
2022/09/13 12:03:56;;;;;;;15.85;3.03;;;19.90;80.90;;;;;;5065641;28;20128;-66
2022/09/13 12:06:27;;;;;;;13.68;2.03;;;19.90;75.90;;;;;;5066061;28;20131;-66
2022/09/13 12:09:15;;;;;;;5.47;1.40;;;19.80;71.00;;;;;;5052661;28;20068;-66
2022/09/13 12:11:50;;;;;;;12.10;2.00;;;19.80;61.70;;;;;;5046012;28;20056;-67
2022/09/13 12:14:21;;;;;;;10.60;1.42;;;20.00;61.80;;;;;;5051783;28;20465;-66
2022/09/13 12:16:51;;;;;;;12.18;2.15;;;20.10;61.20;;;;;;5064639;28;20043;-67
2022/09/13 12:19:48;;;;;;;4.40;1.25;;;20.30;57.20;;;;;;5063190;28;20489;-66
2022/09/13 12:22:16;;;;;;;6.07;1.50;;;20.20;61.00;;;;;;5062369;28;20052;-66
2022/09/13 12:24:47;;;;;;;8.75;1.45;;;20.00;63.70;;;;;;5047781;28;20040;-66
2022/09/13 12:27:30;;;;;;;9.35;2.42;;;20.10;72.50;;;;;;5052913;28;20562;-67
2022/09/13 12:30:20;;;;;;;9.20;2.00;;;20.10;67.90;;;;;;5050229;28;20167;-66
2022/09/13 12:32:47;;;;;;;11.90;1.95;;;20.10;65.80;;;;;;5057684;28;20128;-67
2022/09/13 12:35:35;;;;;;;9.70;1.95;;;20.10;67.50;;;;;;5060870;28;20040;-67
2022/09/13 12:38:16;;;;;;;13.48;1.77;;;19.90;61.30;;;;;;5062985;28;20049;-67
2022/09/13 12:40:45;;;;;;;10.88;2.45;;;19.80;64.40;;;;;;5065098;28;20041;-66
2022/09/13 12:43:27;;;;;;;9.90;1.73;;;19.90;60.70;;;;;;5060127;28;20506;-66
2022/09/13 12:46:14;;;;;;;6.28;1.55;;;19.80;65.30;;;;;;5063133;28;20510;-66
2022/09/13 12:48:48;;;;;;;8.07;1.70;;;19.90;62.20;;;;;;5065150;28;20036;-66
2022/09/13 12:51:43;;;;;;;6.97;1.90;;;19.80;65.30;;;;;;5055327;28;20076;-67
2022/09/13 12:54:33;;;;;;;7.65;1.40;;;19.80;59.70;;;;;;4996159;28;20316;-66
2022/09/13 12:56:59;;;;;;;7.97;1.73;;;19.70;60.90;;;;;;5055306;28;20036;-66
2022/09/13 12:59:47;;;;;;;8.55;1.67;;;19.80;62.50;;;;;;5060596;28;20049;-66
2022/09/13 13:02:33;;;;;;;10.53;1.73;;;19.80;55.90;;;;;;5058174;28;20472;-66
2022/09/13 13:05:04;;;;;;;8.10;1.50;;;19.70;62.60;;;;;;5051049;28;20580;-66
2022/09/13 13:07:32;;;;;;;12.40;1.73;;;19.70;62.50;;;;;;5054809;28;20036;-67
2022/09/13 13:09:59;;;;;;;10.95;1.70;;;19.80;57.50;;;;;;5055294;28;20092;-66
2022/09/13 13:12:37;;;;;;;9.13;1.60;;;19.80;54.10;;;;;;5044954;28;20044;-66
2022/09/13 13:15:26;;;;;;;7.40;1.70;;;19.60;61.60;;;;;;5064011;28;20522;-66